Time;durP1;ratioP1;P1;durP2;ratioP2;P2;SDS_P1;SDS_P2;PMS_P1;PMS_P2;Temp;Humidity;BMP_temperature;BMP_pressure;BME280_temperature;BME280_humidity;BME280_pressure;Samples;Min_cycle;Max_cycle;Signal;HPM_P1;HPM_P2
2022/01/13 00:01:14;;;;;;;62.67;57.30;;;;;;;2.41;100.00;104432.68;1908571;74;86396;-76
2022/01/13 00:06:58;;;;;;;61.47;56.33;;;;;;;1.89;100.00;104429.78;1977028;71;40207;-79
2022/01/13 00:12:44;;;;;;;61.93;56.93;;;;;;;1.82;100.00;104432.73;1831500;76;86627;-77
2022/01/13 00:18:38;;;;;;;62.03;56.73;;;;;;;1.74;100.00;104435.30;1795398;78;84825;-74
2022/01/13 00:24:17;;;;;;;63.57;57.87;;;;;;;1.69;100.00;104430.23;1860024;75;86479;-75
2022/01/13 00:30:04;;;;;;;62.10;56.73;;;;;;;1.81;100.00;104422.77;1926931;73;86838;-75
2022/01/13 00:35:48;;;;;;;57.37;52.47;;;;;;;2.27;100.00;104424.86;1898409;73;86459;-75
2022/01/13 00:41:32;;;;;;;60.53;55.30;;;;;;;2.13;100.00;104424.80;1909537;74;86115;-75
2022/01/13 00:47:17;;;;;;;59.90;54.80;;;;;;;2.01;100.00;104421.80;1804926;79;85522;-73
2022/01/13 00:53:02;;;;;;;62.03;56.53;;;;;;;1.86;100.00;104418.23;1937285;73;86436;-76
2022/01/13 00:58:47;;;;;;;59.80;54.57;;;;;;;1.81;100.00;104419.52;1874074;74;86050;-75
2022/01/13 01:04:31;;;;;;;62.30;56.80;;;;;;;1.74;100.00;104419.73;1807377;78;86347;-76
2022/01/13 01:10:14;;;;;;;59.70;54.40;;;;;;;1.73;100.00;104420.73;1917075;72;86357;-76
2022/01/13 01:16:05;;;;;;;62.07;56.57;;;;;;;1.88;100.00;104416.23;1980846;71;39567;-75
2022/01/13 01:28:01;;;;;;;59.97;54.70;;;;;;;2.16;100.00;104414.91;1930721;71;39571;-74
2022/01/13 01:33:57;;;;;;;60.57;54.80;;;;;;;2.00;100.00;104414.60;1798963;78;86076;-75
2022/01/13 01:39:31;;;;;;;64.03;58.43;;;;;;;2.11;100.00;104417.20;1801756;78;85686;-74
2022/01/13 01:45:17;;;;;;;60.60;55.40;;;;;;;1.73;100.00;104408.40;1940967;73;86543;-75
2022/01/13 01:51:04;;;;;;;59.17;53.90;;;;;;;1.77;100.00;104413.09;1938668;73;86500;-75
2022/01/13 01:56:48;;;;;;;59.43;54.23;;;;;;;1.95;100.00;104407.80;1944375;71;39445;-75
2022/01/13 02:02:33;;;;;;;59.23;54.43;;;;;;;1.91;100.00;104409.96;1904771;74;86408;-76
2022/01/13 02:08:18;;;;;;;60.73;55.57;;;;;;;1.67;100.00;104408.94;1891010;73;86691;-75
2022/01/13 02:14:10;;;;;;;60.37;55.23;;;;;;;1.32;100.00;104416.76;1914649;74;85447;-75
2022/01/13 02:19:52;;;;;;;57.33;52.83;;;;;;;1.28;100.00;104410.66;1982298;71;39433;-73
2022/01/13 02:25:37;;;;;;;60.30;55.40;;;;;;;1.49;100.00;104403.78;1838407;76;86309;-74
2022/01/13 02:31:22;;;;;;;57.77;52.57;;;;;;;1.50;100.00;104395.91;1889004;75;86541;-74
2022/01/13 02:37:07;;;;;;;56.87;52.17;;;;;;;1.34;100.00;104409.25;1922819;72;86559;-74
2022/01/13 02:42:51;;;;;;;56.90;52.07;;;;;;;1.47;100.00;104409.02;1986101;71;39573;-75
2022/01/13 02:48:36;;;;;;;56.43;51.53;;;;;;;1.59;100.00;104417.49;1858806;76;86665;-74
2022/01/13 02:54:20;;;;;;;55.60;50.97;;;;;;;1.39;100.00;104411.08;1876596;75;85802;-75
2022/01/13 03:00:07;;;;;;;59.27;54.37;;;;;;;1.69;100.00;104399.22;1913552;72;86156;-75
2022/01/13 03:05:50;;;;;;;61.10;55.87;;;;;;;1.54;100.00;104406.11;1985760;71;39531;-74
2022/01/13 03:11:37;;;;;;;59.73;54.63;;;;;;;1.59;100.00;104405.16;1837494;76;86714;-75
2022/01/13 03:17:22;;;;;;;60.97;56.03;;;;;;;1.72;100.00;104398.94;1873645;74;86744;-75
2022/01/13 03:23:06;;;;;;;63.90;58.37;;;;;;;1.51;100.00;104402.25;1913163;72;85461;-73
2022/01/13 03:28:55;;;;;;;66.10;59.83;;;;;;;1.54;100.00;104403.38;1957824;71;39503;-73
2022/01/13 03:34:39;;;;;;;63.93;58.03;;;;;;;1.65;100.00;104382.20;1961025;72;86209;-76
2022/01/13 03:40:27;;;;;;;65.50;58.80;;;;;;;1.77;100.00;104388.42;1882837;74;86348;-77
2022/01/13 03:46:14;;;;;;;65.47;58.77;;;;;;;1.44;100.00;104378.67;1911902;73;86089;-75
2022/01/13 03:52:36;;;;;;;61.20;55.37;;;;;;;1.45;100.00;104380.91;1985966;71;39433;-75
2022/01/13 03:55:56;;;;;;;63.17;57.70;;;;;;;1.58;100.00;104383.77;1912726;73;936924;-74
2022/01/13 03:59:14;;;;;;;63.37;57.50;;;;;;;1.47;100.00;104389.34;1913107;73;936937;-74
2022/01/13 04:05:20;;;;;;;61.97;56.30;;;;;;;1.44;100.00;104370.45;1892060;75;86837;-75
2022/01/13 04:11:20;;;;;;;59.37;54.03;;;;;;;1.41;100.00;104357.54;1918002;73;86438;-75
2022/01/13 04:17:04;;;;;;;58.80;53.50;;;;;;;1.41;100.00;104365.26;1931411;73;86451;-74
2022/01/13 04:22:49;;;;;;;59.43;54.27;;;;;;;1.43;100.00;104376.06;1980513;71;39544;-73
2022/01/13 04:28:34;;;;;;;60.10;55.00;;;;;;;1.41;100.00;104363.89;1887683;74;85432;-75
2022/01/13 04:34:19;;;;;;;59.43;54.33;;;;;;;1.57;100.00;104360.61;1871623;74;86476;-74
2022/01/13 04:40:08;;;;;;;60.97;55.57;;;;;;;1.42;100.00;104358.75;1925624;73;86787;-74
2022/01/13 04:45:52;;;;;;;61.77;56.47;;;;;;;1.33;100.00;104364.56;1987031;71;39635;-73
2022/01/13 04:51:38;;;;;;;62.40;56.77;;;;;;;1.26;100.00;104364.75;1844077;76;86641;-75
2022/01/13 04:57:22;;;;;;;58.80;53.73;;;;;;;1.25;100.00;104364.38;1869634;75;85635;-74
2022/01/13 05:03:06;;;;;;;60.43;55.43;;;;;;;1.21;100.00;104364.80;1871254;76;86192;-75
2022/01/13 05:08:50;;;;;;;59.23;54.13;;;;;;;1.13;100.00;104365.48;1984476;71;39741;-75
2022/01/13 05:14:35;;;;;;;60.57;55.50;;;;;;;1.10;100.00;104364.90;1836632;76;86631;-75
2022/01/13 05:20:22;;;;;;;61.50;56.30;;;;;;;1.07;100.00;104362.45;1866687;76;86496;-75
2022/01/13 05:26:06;;;;;;;58.87;53.83;;;;;;;1.13;100.00;104366.86;1947256;73;86631;-75
2022/01/13 05:31:52;;;;;;;61.70;56.30;;;;;;;1.08;100.00;104368.27;1980650;71;39762;-75
2022/01/13 05:37:36;;;;;;;62.90;57.43;;;;;;;1.00;100.00;104368.08;1848746;76;86248;-74
2022/01/13 05:43:21;;;;;;;63.33;57.57;;;;;;;1.15;100.00;104366.73;1890446;75;85981;-75
2022/01/13 05:49:06;;;;;;;59.40;54.23;;;;;;;0.98;100.00;104364.63;1929891;73;85689;-75
2022/01/13 05:54:51;;;;;;;59.27;54.37;;;;;;;1.11;100.00;104372.13;1983550;71;39756;-76
2022/01/13 06:00:36;;;;;;;61.33;55.93;;;;;;;0.80;100.00;104372.09;1831369;76;85553;-74
2022/01/13 06:06:19;;;;;;;59.57;54.77;;;;;;;0.90;100.00;104366.65;1878002;75;86218;-74
2022/01/13 06:12:04;;;;;;;59.57;54.70;;;;;;;0.91;100.00;104378.84;1910463;74;86554;-74
2022/01/13 06:17:50;;;;;;;58.67;53.47;;;;;;;0.95;100.00;104379.94;1980599;70;40212;-74
2022/01/13 06:23:36;;;;;;;58.47;53.50;;;;;;;0.93;100.00;104379.22;1844098;75;86343;-74
2022/01/13 06:29:20;;;;;;;58.63;53.67;;;;;;;0.94;100.00;104380.96;1892713;73;86460;-74
2022/01/13 06:35:06;;;;;;;58.13;53.43;;;;;;;0.92;100.00;104381.09;1909777;72;86310;-74
2022/01/13 06:40:51;;;;;;;59.43;54.30;;;;;;;0.89;100.00;104382.23;1983598;71;39423;-75
2022/01/13 06:46:35;;;;;;;61.67;56.37;;;;;;;1.25;100.00;104383.56;1820599;76;86764;-75
2022/01/13 06:52:20;;;;;;;57.23;52.33;;;;;;;1.22;100.00;104391.19;1882360;74;86070;-75
2022/01/13 06:58:04;;;;;;;60.63;55.47;;;;;;;1.42;100.00;104384.77;1917088;73;85781;-76
2022/01/13 07:03:49;;;;;;;64.10;58.17;;;;;;;1.18;100.00;104389.23;1978608;71;39559;-80
2022/01/13 07:09:35;;;;;;;65.03;58.97;;;;;;;1.15;100.00;104385.90;1884846;74;85491;-77
2022/01/13 07:12:09;;;;;;;65.60;59.40;;;;;;;1.10;100.00;104387.67;1863675;75;935761;-78
2022/01/13 07:17:53;;;;;;;66.43;57.80;;;;;;;1.36;100.00;104381.23;1974539;71;39569;-75
2022/01/13 07:23:38;;;;;;;65.63;58.40;;;;;;;1.41;100.00;104383.06;1815622;76;86096;-75
2022/01/13 07:29:22;;;;;;;62.53;56.60;;;;;;;1.54;100.00;104384.19;1886715;73;86736;-75
2022/01/13 07:35:12;;;;;;;62.07;55.57;;;;;;;1.42;100.00;104394.86;1912237;74;86644;-76
2022/01/13 07:40:56;;;;;;;67.33;60.97;;;;;;;1.34;100.00;104393.69;1986060;71;39540;-77
2022/01/13 07:46:40;;;;;;;66.47;60.77;;;;;;;1.33;100.00;104393.31;1832039;76;86554;-75
2022/01/13 07:52:27;;;;;;;67.63;61.17;;;;;;;1.31;100.00;104389.87;1888207;74;86353;-75
2022/01/13 07:58:11;;;;;;;65.47;58.70;;;;;;;1.15;100.00;104392.25;1913605;72;86399;-74
2022/01/13 08:03:55;;;;;;;67.90;62.17;;;;;;;1.11;100.00;104394.90;1962070;71;39599;-75
2022/01/13 08:09:38;;;;;;;68.93;62.50;;;;;;;1.12;100.00;104395.23;1864375;75;86734;-75
2022/01/13 08:15:23;;;;;;;69.07;62.20;;;;;;;1.17;100.00;104405.78;1882611;74;86577;-75
2022/01/13 08:24:14;;;;;;;68.90;61.90;;;;;;;1.28;100.00;104404.34;1864478;76;86103;-75
2022/01/13 08:26:45;;;;;;;68.40;62.00;;;;;;;1.08;100.00;104421.16;1749257;76;936767;-78
2022/01/13 08:29:15;;;;;;;70.23;63.17;;;;;;;1.11;100.00;104419.54;1791498;78;938960;-79
2022/01/13 08:34:59;;;;;;;74.87;67.20;;;;;;;1.12;100.00;104422.62;1985773;71;39663;-74
2022/01/13 08:40:45;;;;;;;67.70;61.23;;;;;;;0.99;100.00;104426.56;1840689;76;87147;-74
2022/01/13 08:46:29;;;;;;;64.90;58.83;;;;;;;0.91;100.00;104420.40;1795157;78;86297;-77
2022/01/13 08:52:13;;;;;;;61.57;56.20;;;;;;;1.33;100.00;104430.30;1916999;74;86463;-75
2022/01/13 08:58:12;;;;;;;64.07;57.60;;;;;;;1.30;100.00;104426.47;1909919;73;86513;-77
2022/01/13 09:07:03;;;;;;;65.17;58.87;;;;;;;1.24;100.00;104433.84;1894578;74;86469;-74
2022/01/13 09:09:35;;;;;;;67.10;60.75;;;;;;;1.35;100.00;104441.13;1844535;76;934607;-77
2022/01/13 09:12:07;;;;;;;66.90;60.47;;;;;;;1.22;100.00;104433.63;1841640;76;938716;-75
2022/01/13 09:14:38;;;;;;;65.90;59.20;;;;;;;1.24;100.00;104437.12;1835256;75;938895;-76
2022/01/13 09:17:18;;;;;;;68.60;61.80;;;;;;;1.27;100.00;104434.97;1852541;75;938998;-75
2022/01/13 09:19:42;;;;;;;64.70;58.27;;;;;;;1.29;100.00;104437.55;1801067;78;949075;-74
2022/01/13 09:22:12;;;;;;;61.60;55.90;;;;;;;1.26;100.00;104435.09;1815061;77;938778;-74
2022/01/13 09:24:43;;;;;;;65.70;59.30;;;;;;;1.50;100.00;104435.63;1772126;78;937821;-72
2022/01/13 09:27:14;;;;;;;76.37;62.50;;;;;;;1.14;100.00;104438.92;1783835;79;938764;-75
2022/01/13 09:29:44;;;;;;;77.05;59.42;;;;;;;1.04;100.00;104434.75;1772033;79;938930;-76
2022/01/13 09:32:14;;;;;;;139.20;61.30;;;;;;;1.03;100.00;104441.22;1783760;78;938718;-74
2022/01/13 09:34:45;;;;;;;140.87;63.23;;;;;;;1.13;100.00;104435.31;1771924;79;940891;-74
2022/01/13 09:37:16;;;;;;;99.93;58.17;;;;;;;1.20;100.00;104438.36;1783704;78;940881;-77
2022/01/13 09:39:47;;;;;;;84.70;58.73;;;;;;;1.35;100.00;104434.28;1771939;79;937478;-72
2022/01/13 09:42:20;;;;;;;65.70;54.97;;;;;;;1.31;100.00;104433.69;1783858;78;938751;-74
2022/01/13 09:44:51;;;;;;;68.93;52.27;;;;;;;1.52;100.00;104428.66;1772137;79;939165;-76
2022/01/13 09:47:22;;;;;;;86.03;58.47;;;;;;;1.63;100.00;104431.28;1783938;78;936907;-73
2022/01/13 09:49:54;;;;;;;78.20;53.83;;;;;;;1.50;100.00;104432.89;1772277;79;938810;-75
2022/01/13 09:52:25;;;;;;;65.33;52.13;;;;;;;1.57;100.00;104434.59;1783838;79;936769;-73
2022/01/13 09:54:56;;;;;;;62.33;50.43;;;;;;;1.71;100.00;104436.97;1772128;79;938796;-73
2022/01/13 09:57:26;;;;;;;83.10;54.23;;;;;;;1.91;100.00;104433.27;1783834;78;936909;-74
2022/01/13 09:59:58;;;;;;;67.80;53.60;;;;;;;2.00;100.00;104431.55;1772172;78;938815;-73
2022/01/13 10:05:51;;;;;;;57.50;51.50;;;;;;;2.03;100.00;104412.94;1832724;76;86480;-74
2022/01/13 10:11:41;;;;;;;95.33;58.10;;;;;;;1.84;100.00;104412.38;1827258;76;86341;-75
2022/01/13 10:17:27;;;;;;;57.03;51.47;;;;;;;1.73;100.00;104415.25;1915446;74;86446;-75
2022/01/13 10:23:13;;;;;;;57.53;52.33;;;;;;;2.06;100.00;104409.03;1903560;74;86427;-78
2022/01/13 10:28:59;;;;;;;57.03;51.93;;;;;;;2.09;100.00;104412.38;1977281;71;39788;-76
2022/01/13 10:35:04;;;;;;;60.63;54.80;;;;;;;2.53;100.00;104408.70;1938794;73;85548;-77
2022/01/13 10:40:53;;;;;;;62.87;56.97;;;;;;;2.47;100.00;104407.42;1984414;71;39696;-76
2022/01/13 10:50:07;;;;;;;63.17;57.27;;;;;;;2.78;100.00;104410.00;1892223;75;86253;-76
2022/01/13 10:52:38;;;;;;;61.20;55.80;;;;;;;2.66;100.00;104399.66;1799478;77;936771;-77
2022/01/13 10:55:12;;;;;;;60.77;55.30;;;;;;;2.66;100.00;104399.66;1812187;77;938646;-77
2022/01/13 10:57:45;;;;;;;59.53;54.08;;;;;;;3.11;100.00;104413.61;1788971;77;938955;-75
2022/01/13 11:03:39;;;;;;;64.37;58.47;;;;;;;3.48;100.00;104403.98;1853301;76;86839;-75
2022/01/13 11:09:25;;;;;;;62.67;57.00;;;;;;;3.57;100.00;104403.08;1824184;76;86789;-76
2022/01/13 11:22:01;;;;;;;66.60;60.67;;;;;;;4.04;100.00;104387.31;1957907;71;39617;-76
2022/01/13 11:27:47;;;;;;;69.03;62.70;;;;;;;4.06;100.00;104381.16;1796455;78;86550;-73
2022/01/13 11:33:32;;;;;;;69.90;63.63;;;;;;;4.18;100.00;104370.27;1900781;74;86665;-75
2022/01/13 11:39:17;;;;;;;68.37;61.93;;;;;;;4.33;100.00;104374.19;1911849;74;86335;-76
2022/01/13 11:45:22;;;;;;;71.10;64.70;;;;;;;4.47;100.00;104367.27;1905844;72;85995;-78
2022/01/13 11:51:20;;;;;;;70.90;64.33;;;;;;;4.71;100.00;104364.70;1912109;73;85344;-78
2022/01/13 12:00:29;;;;;;;68.77;62.60;;;;;;;4.95;100.00;104354.38;1890028;74;86189;-74
2022/01/13 12:06:27;;;;;;;70.53;64.33;;;;;;;4.99;100.00;104353.89;1945846;72;86192;-74
2022/01/13 12:12:14;;;;;;;74.10;67.20;;;;;;;5.28;100.00;104350.77;1909823;74;86449;-74
2022/01/13 12:18:03;;;;;;;72.93;66.20;;;;;;;5.61;100.00;104344.87;1986644;71;39713;-76
2022/01/13 12:23:49;;;;;;;70.17;63.90;;;;;;;5.49;100.00;104344.33;1981585;71;39562;-76
2022/01/13 12:30:11;;;;;;;74.60;68.13;;;;;;;5.78;100.00;104337.52;1918013;72;86205;-76
2022/01/13 12:35:54;;;;;;;72.53;66.30;;;;;;;5.90;100.00;104326.02;1930745;71;39677;-74
2022/01/13 12:41:58;;;;;;;72.10;66.13;;;;;;;6.11;100.00;104311.76;1850983;76;85506;-75
2022/01/13 12:47:43;;;;;;;76.60;70.27;;;;;;;6.10;100.00;104311.92;1833708;76;86570;-74
2022/01/13 12:53:35;;;;;;;71.90;65.80;;;;;;;6.07;100.00;104317.79;1883105;74;86769;-74
2022/01/13 12:56:08;;;;;;;73.87;67.90;;;;;;;6.19;100.00;104308.14;1849454;75;936875;-75
2022/01/13 13:01:57;;;;;;;74.23;68.30;;;;;;;6.33;100.00;104296.41;1978592;71;39697;-77
2022/01/13 13:07:43;;;;;;;75.17;69.03;;;;;;;6.49;100.00;104294.15;1847169;76;86292;-74
2022/01/13 13:13:30;;;;;;;76.00;69.70;;;;;;;6.57;100.00;104298.28;1886775;74;86472;-76
2022/01/13 13:19:15;;;;;;;76.07;69.77;;;;;;;6.53;100.00;104288.63;1913930;74;86707;-77
2022/01/13 13:25:00;;;;;;;76.90;70.90;;;;;;;6.59;100.00;104287.39;1942367;71;39828;-76
2022/01/13 13:30:47;;;;;;;70.77;64.77;;;;;;;6.89;100.00;104286.31;1978786;71;85700;-77
2022/01/13 13:36:34;;;;;;;71.33;65.17;;;;;;;7.21;100.00;104287.05;1802813;78;86174;-76
2022/01/13 13:42:26;;;;;;;68.90;62.97;;;;;;;7.27;100.00;104284.11;1880355;75;86820;-73
2022/01/13 13:48:10;;;;;;;67.10;61.20;;;;;;;7.50;100.00;104279.99;1913797;72;86194;-75
2022/01/13 13:54:13;;;;;;;66.80;60.77;;;;;;;7.36;100.00;104286.31;1975796;70;44217;-78
2022/01/13 14:00:00;;;;;;;61.53;56.37;;;;;;;7.63;100.00;104271.97;1978556;71;39490;-77
2022/01/13 14:05:46;;;;;;;62.17;57.07;;;;;;;7.43;100.00;104263.80;1976740;72;86748;-75
2022/01/13 14:11:46;;;;;;;65.57;60.07;;;;;;;7.44;100.00;104248.41;1795769;78;86074;-78
2022/01/13 14:17:33;;;;;;;68.33;62.93;;;;;;;7.56;100.00;104246.95;1803220;78;85513;-77
2022/01/13 14:23:21;;;;;;;68.23;62.23;;;;;;;7.44;100.00;104244.78;1877303;75;86626;-75
2022/01/13 14:29:06;;;;;;;67.00;61.80;;;;;;;7.41;100.00;104237.69;1909909;73;86160;-74
2022/01/13 14:34:52;;;;;;;66.87;61.27;;;;;;;7.47;100.00;104236.97;1943185;71;39654;-72
2022/01/13 14:40:48;;;;;;;65.40;59.70;;;;;;;7.63;100.00;104234.61;1842427;76;86498;-77
2022/01/13 14:46:37;;;;;;;67.80;62.20;;;;;;;7.83;100.00;104228.92;1888616;74;85646;-76
2022/01/13 14:52:22;;;;;;;65.30;59.97;;;;;;;7.70;100.00;104217.63;1879723;75;86644;-75
2022/01/13 14:58:06;;;;;;;65.77;60.33;;;;;;;7.82;100.00;104212.52;1942385;74;85448;-75
2022/01/13 15:03:52;;;;;;;63.13;58.03;;;;;;;8.07;100.00;104212.13;1977263;71;39772;-76
2022/01/13 15:09:35;;;;;;;64.90;60.00;;;;;;;8.07;100.00;104207.12;1900241;74;86498;-75
2022/01/13 15:15:23;;;;;;;66.50;61.30;;;;;;;8.11;100.00;104205.69;1871149;74;85389;-75
2022/01/13 15:21:07;;;;;;;67.10;61.80;;;;;;;7.73;100.00;104193.22;1958071;71;85448;-78
2022/01/13 15:26:52;;;;;;;68.67;62.97;;;;;;;7.24;100.00;104194.57;1960220;71;39589;-76
2022/01/13 15:32:36;;;;;;;71.83;65.73;;;;;;;7.62;100.00;104201.06;1837150;76;86375;-75
2022/01/13 15:38:23;;;;;;;71.47;65.73;;;;;;;7.43;100.00;104197.41;1873948;75;86554;-77
2022/01/13 15:44:09;;;;;;;75.50;69.27;;;;;;;7.25;100.00;104204.08;1910287;73;85551;-77
2022/01/13 15:49:54;;;;;;;80.63;74.47;;;;;;;7.22;100.00;104203.58;1943981;70;39590;-74
2022/01/13 15:55:41;;;;;;;77.97;71.17;;;;;;;7.04;100.00;104204.36;1839396;76;86576;-74
2022/01/13 16:01:26;;;;;;;80.27;73.87;;;;;;;6.72;100.00;104195.16;1886666;73;86468;-73
2022/01/13 16:07:09;;;;;;;78.97;72.90;;;;;;;6.49;100.00;104207.15;1940366;72;86793;-75
2022/01/13 16:12:52;;;;;;;79.77;73.53;;;;;;;6.20;100.00;104204.45;1974825;71;39622;-76
2022/01/13 16:18:37;;;;;;;74.53;68.57;;;;;;;6.22;100.00;104209.27;1844232;76;86337;-77
2022/01/13 16:24:21;;;;;;;74.60;67.93;;;;;;;6.16;100.00;104213.25;1872533;75;85658;-74
2022/01/13 16:30:13;;;;;;;71.20;65.40;;;;;;;6.29;100.00;104217.17;1918767;72;86355;-76
2022/01/13 16:35:59;;;;;;;71.13;65.20;;;;;;;6.26;100.00;104213.91;1986101;70;39795;-77
2022/01/13 16:41:44;;;;;;;69.57;63.77;;;;;;;6.16;100.00;104211.33;1827600;76;84670;-75
2022/01/13 16:47:29;;;;;;;70.83;65.23;;;;;;;6.05;100.00;104214.45;1889567;74;86561;-75
2022/01/13 16:53:13;;;;;;;70.93;65.17;;;;;;;5.92;100.00;104208.59;1927861;72;86592;-73
2022/01/13 16:58:58;;;;;;;67.10;61.60;;;;;;;5.50;100.00;104211.45;1951231;71;39395;-73
2022/01/13 17:04:42;;;;;;;68.60;62.97;;;;;;;5.51;100.00;104207.67;1985462;69;85661;-74
2022/01/13 17:10:32;;;;;;;66.93;61.33;;;;;;;5.88;100.00;104211.34;1886069;74;86564;-71
2022/01/13 17:16:14;;;;;;;64.27;58.93;;;;;;;5.91;100.00;104205.47;1908326;74;86861;-74
2022/01/13 17:21:58;;;;;;;65.70;59.87;;;;;;;5.71;100.00;104204.92;1986082;71;39580;-73
2022/01/13 17:27:43;;;;;;;64.57;59.13;;;;;;;5.70;100.00;104201.81;1882440;74;86211;-75
2022/01/13 17:33:28;;;;;;;62.87;57.97;;;;;;;5.12;100.00;104196.37;1885627;74;85296;-76
2022/01/13 17:39:17;;;;;;;59.57;54.70;;;;;;;5.00;100.00;104190.31;1916441;74;86449;-73
2022/01/13 17:45:00;;;;;;;60.30;55.40;;;;;;;4.95;100.00;104176.17;1939683;71;40193;-72
2022/01/13 17:50:47;;;;;;;59.27;54.30;;;;;;;5.15;100.00;104180.87;1828707;76;85606;-75
2022/01/13 17:56:33;;;;;;;61.43;55.93;;;;;;;5.09;100.00;104188.95;1795818;79;86522;-75
2022/01/13 18:02:30;;;;;;;59.40;54.47;;;;;;;4.89;100.00;104182.84;1805427;75;86632;-76
2022/01/13 18:08:13;;;;;;;58.30;53.43;;;;;;;4.64;100.00;104176.37;1909543;74;86503;-76
2022/01/13 18:13:57;;;;;;;61.67;56.77;;;;;;;4.72;100.00;104176.91;1935532;71;39500;-77
2022/01/13 18:19:41;;;;;;;59.13;54.30;;;;;;;4.55;100.00;104173.22;1846258;76;86740;-75
2022/01/13 18:25:25;;;;;;;59.33;54.30;;;;;;;4.57;100.00;104169.80;1903481;73;86400;-76
2022/01/13 18:31:08;;;;;;;60.13;55.23;;;;;;;4.74;100.00;104174.36;1922763;73;86824;-76
2022/01/13 18:36:52;;;;;;;61.90;56.70;;;;;;;4.95;100.00;104168.41;1974766;71;39487;-75
2022/01/13 18:42:40;;;;;;;65.13;59.57;;;;;;;4.73;100.00;104167.12;1849341;76;86463;-74
2022/01/13 18:48:26;;;;;;;60.87;55.90;;;;;;;5.26;100.00;104162.63;1884145;73;85531;-71
2022/01/13 18:54:10;;;;;;;61.23;56.23;;;;;;;5.28;100.00;104166.09;1911097;72;86453;-73
2022/01/13 18:59:56;;;;;;;62.07;57.07;;;;;;;5.17;100.00;104159.53;1987293;71;39629;-72
2022/01/13 19:05:42;;;;;;;61.70;56.63;;;;;;;4.51;100.00;104158.92;1971225;71;85243;-76
2022/01/13 19:11:28;;;;;;;61.77;56.73;;;;;;;3.99;100.00;104156.70;1878074;73;86453;-74
2022/01/13 19:17:19;;;;;;;66.90;61.57;;;;;;;3.89;100.00;104168.85;1922765;73;86565;-74
2022/01/13 19:22:59;;;;;;;61.97;57.10;;;;;;;3.73;100.00;104170.06;1976586;71;40369;-75
2022/01/13 19:28:45;;;;;;;61.90;56.77;;;;;;;3.60;100.00;104169.97;1848205;76;86285;-78
2022/01/13 19:34:30;;;;;;;60.83;55.93;;;;;;;3.31;100.00;104178.09;1807598;78;86137;-75
2022/01/13 19:40:15;;;;;;;59.97;55.07;;;;;;;3.33;100.00;104171.95;1923115;74;86570;-74
2022/01/13 19:46:01;;;;;;;59.20;54.20;;;;;;;3.26;100.00;104177.19;1985627;71;39566;-74
2022/01/13 19:51:45;;;;;;;57.50;52.83;;;;;;;3.07;100.00;104171.33;1844849;76;86371;-79
2022/01/13 19:57:30;;;;;;;58.57;53.67;;;;;;;3.05;100.00;104177.47;1833987;76;86374;-80
2022/01/13 20:03:15;;;;;;;57.53;52.97;;;;;;;3.28;100.00;104176.53;1910548;72;86290;-71
2022/01/13 20:08:59;;;;;;;58.50;53.60;;;;;;;3.24;100.00;104183.36;1980374;71;39663;-74
2022/01/13 20:14:44;;;;;;;58.87;54.07;;;;;;;3.24;100.00;104185.23;1825872;76;86264;-72
2022/01/13 20:20:29;;;;;;;60.57;55.43;;;;;;;3.23;100.00;104173.89;1883223;73;85638;-76
2022/01/13 20:26:13;;;;;;;61.27;56.13;;;;;;;3.28;100.00;104171.03;1907702;73;86454;-75
2022/01/13 20:31:57;;;;;;;62.97;57.63;;;;;;;3.26;100.00;104171.69;1945058;71;39528;-75
2022/01/13 20:37:42;;;;;;;62.17;57.07;;;;;;;3.31;100.00;104169.34;1931407;72;86261;-71
2022/01/13 20:43:27;;;;;;;59.80;54.97;;;;;;;2.99;100.00;104174.49;1900328;73;86197;-70
2022/01/13 20:49:14;;;;;;;60.17;54.97;;;;;;;2.82;100.00;104175.31;1921003;73;86300;-69
2022/01/13 20:55:02;;;;;;;60.33;55.57;;;;;;;2.62;100.00;104172.66;1982091;71;39620;-71
2022/01/13 21:00:47;;;;;;;58.33;53.93;;;;;;;2.31;100.00;104152.52;1850207;76;86348;-72
2022/01/13 21:06:29;;;;;;;55.77;51.67;;;;;;;2.18;100.00;104156.95;1838871;76;86094;-72
2022/01/13 21:12:14;;;;;;;58.17;53.70;;;;;;;2.29;100.00;104153.52;1927811;73;86288;-73
2022/01/13 21:17:58;;;;;;;62.13;57.63;;;;;;;2.34;100.00;104155.81;1970857;71;40619;-71
2022/01/13 21:23:42;;;;;;;59.63;55.40;;;;;;;2.24;100.00;104148.98;1982494;72;86772;-76
2022/01/13 21:29:28;;;;;;;59.63;55.13;;;;;;;2.39;100.00;104155.37;1881565;73;86170;-76
2022/01/13 21:35:15;;;;;;;62.87;57.87;;;;;;;2.25;100.00;104150.72;1948026;72;86291;-78
2022/01/13 21:41:01;;;;;;;62.03;57.43;;;;;;;2.20;100.00;104139.83;1985067;71;39591;-76
2022/01/13 21:46:47;;;;;;;59.93;55.13;;;;;;;2.05;100.00;104143.58;1850028;76;86232;-72
2022/01/13 21:52:32;;;;;;;62.70;58.03;;;;;;;2.07;100.00;104131.06;1796753;78;86561;-74
2022/01/13 21:58:17;;;;;;;60.17;55.57;;;;;;;2.02;100.00;104129.27;1923150;73;86458;-71
2022/01/13 22:04:01;;;;;;;60.10;55.43;;;;;;;1.92;100.00;104126.58;1974541;71;39767;-71
2022/01/13 22:09:50;;;;;;;62.60;57.80;;;;;;;1.97;100.00;104111.89;1841347;76;86037;-71
2022/01/13 22:15:31;;;;;;;65.17;59.97;;;;;;;2.08;100.00;104114.98;1797231;78;85816;-72
2022/01/13 22:21:23;;;;;;;67.40;62.10;;;;;;;2.25;100.00;104114.20;1944350;72;86237;-71
2022/01/13 22:27:04;;;;;;;66.17;60.37;;;;;;;2.24;100.00;104111.09;1814218;77;85879;-69
2022/01/13 22:32:48;;;;;;;62.43;57.03;;;;;;;2.17;100.00;104112.71;1874193;75;86867;-72
2022/01/13 22:41:53;;;;;;;62.83;57.33;;;;;;;1.99;100.00;104116.73;1945968;71;40228;-73
2022/01/13 22:47:42;;;;;;;63.10;57.83;;;;;;;2.11;100.00;104114.67;1826662;76;85768;-73
2022/01/13 22:53:28;;;;;;;62.83;57.47;;;;;;;1.90;100.00;104116.25;1884393;74;86740;-73
2022/01/13 22:59:13;;;;;;;65.93;60.57;;;;;;;1.96;100.00;104106.58;1916372;72;85467;-73
2022/01/13 23:04:57;;;;;;;64.27;59.07;;;;;;;1.91;100.00;104097.42;1949404;72;39514;-69
2022/01/13 23:10:40;;;;;;;65.37;60.07;;;;;;;2.29;100.00;104101.40;1825822;76;86826;-69
2022/01/13 23:22:28;;;;;;;63.80;58.70;;;;;;;1.72;100.00;104096.95;1888615;74;86572;-70
2022/01/13 23:28:12;;;;;;;64.53;59.17;;;;;;;1.60;100.00;104089.05;1932491;73;86063;-74
2022/01/13 23:33:56;;;;;;;61.60;56.50;;;;;;;1.56;100.00;104095.34;1974128;71;39450;-70
2022/01/13 23:39:40;;;;;;;63.73;58.40;;;;;;;1.56;100.00;104104.05;1979827;72;86609;-74
2022/01/13 23:47:01;;;;;;;62.93;57.73;;;;;;;1.63;100.00;104110.67;1885186;74;86458;-74
2022/01/13 23:51:13;;;;;;;64.40;59.10;;;;;;;1.45;100.00;104104.22;1914818;74;86411;-69
2022/01/13 23:56:58;;;;;;;64.37;59.23;;;;;;;1.50;100.00;104101.39;1957462;71;39607;-69
